createdAt,value
2019-05-11T00:00:59.223Z,0.03
2019-05-11T00:01:59.265Z,0.09
2019-05-11T00:02:59.302Z,0.02
2019-05-11T00:03:59.258Z,0.00
2019-05-11T00:04:59.281Z,0.00
2019-05-11T00:05:59.332Z,0.00
2019-05-11T00:06:59.283Z,0.00
2019-05-11T00:07:59.329Z,0.00
2019-05-11T00:08:59.330Z,0.00
2019-05-11T00:09:59.309Z,0.00
2019-05-11T00:10:59.350Z,0.00
2019-05-11T00:11:59.392Z,0.00
2019-05-11T00:12:59.373Z,0.00
2019-05-11T00:13:59.394Z,0.00
2019-05-11T00:14:59.433Z,0.00
2019-05-11T00:15:59.394Z,0.00
2019-05-11T00:16:59.407Z,0.00
2019-05-11T00:17:59.517Z,0.00
2019-05-11T00:18:59.444Z,0.00
2019-05-11T00:19:59.463Z,0.00
2019-05-11T00:20:59.494Z,0.00
2019-05-11T00:21:59.471Z,0.00
2019-05-11T00:22:59.496Z,0.00
2019-05-11T00:23:59.536Z,0.00
2019-05-11T00:24:59.495Z,0.00
2019-05-11T00:25:59.516Z,0.00
2019-05-11T00:26:59.529Z,0.00
2019-05-11T00:27:59.523Z,0.00
2019-05-11T00:28:59.599Z,0.00
2019-05-11T00:29:59.547Z,0.00
2019-05-11T00:30:59.601Z,0.00
2019-05-11T00:31:59.595Z,0.00
2019-05-11T00:32:59.630Z,0.00
2019-05-11T00:33:59.615Z,0.00
2019-05-11T00:34:59.661Z,0.00
2019-05-11T00:35:59.670Z,0.00
2019-05-11T00:36:59.649Z,0.00
2019-05-11T00:37:59.672Z,0.00
2019-05-11T00:38:59.697Z,0.00
2019-05-11T00:40:13.271Z,0.00
2019-05-11T00:40:59.715Z,0.00
2019-05-11T00:41:59.699Z,0.00
2019-05-11T00:42:59.684Z,0.00
2019-05-11T00:43:59.684Z,0.00
2019-05-11T00:44:59.680Z,0.00
2019-05-11T00:45:59.700Z,0.00
2019-05-11T00:46:59.729Z,0.00
2019-05-11T00:47:59.723Z,0.16
2019-05-11T00:48:59.689Z,0.15
2019-05-11T00:49:59.701Z,0.00
2019-05-11T00:50:59.692Z,0.33
2019-05-11T00:51:59.702Z,0.00
2019-05-11T00:52:59.711Z,0.00
2019-05-11T00:53:59.716Z,0.00
2019-05-11T00:54:59.673Z,0.00
2019-05-11T00:55:59.698Z,0.00
2019-05-11T00:56:59.702Z,0.00
2019-05-11T00:57:59.712Z,0.00
2019-05-11T00:58:59.704Z,0.00
2019-05-11T00:59:59.727Z,0.00
2019-05-11T01:00:59.681Z,0.00
2019-05-11T01:01:59.690Z,0.00
2019-05-11T01:02:59.701Z,0.00
2019-05-11T01:03:59.684Z,0.00
2019-05-11T01:04:59.703Z,0.00
2019-05-11T01:05:59.693Z,0.00
2019-05-11T01:06:59.691Z,0.00
2019-05-11T01:07:59.738Z,0.00
2019-05-11T01:08:59.691Z,0.00
2019-05-11T01:09:59.708Z,0.00
2019-05-11T01:10:59.725Z,0.00
2019-05-11T01:11:59.735Z,0.00
2019-05-11T01:12:59.729Z,0.00
2019-05-11T01:13:59.712Z,0.00
2019-05-11T01:14:59.681Z,0.00
2019-05-11T01:15:59.711Z,0.00
2019-05-11T01:16:59.709Z,0.00
2019-05-11T01:17:59.750Z,0.00
2019-05-11T01:18:59.734Z,0.00
2019-05-11T01:19:59.735Z,0.00
2019-05-11T01:20:59.725Z,0.08
2019-05-11T01:21:59.693Z,0.32
2019-05-11T01:22:59.722Z,0.00
2019-05-11T01:23:59.755Z,0.00
2019-05-11T01:24:59.700Z,0.00
2019-05-11T01:25:59.749Z,0.13
2019-05-11T01:26:59.740Z,0.00
2019-05-11T01:27:59.720Z,0.03
2019-05-11T01:28:59.711Z,0.10
2019-05-11T01:29:59.740Z,0.68
2019-05-11T01:30:59.706Z,0.19
2019-05-11T01:31:59.720Z,0.00
2019-05-11T01:32:59.745Z,0.01
2019-05-11T01:33:59.704Z,0.29
2019-05-11T01:34:59.745Z,0.01
2019-05-11T01:35:59.768Z,0.00
2019-05-11T01:36:59.726Z,0.03
2019-05-11T01:37:59.708Z,0.00
2019-05-11T01:38:59.761Z,0.00
2019-05-11T01:39:59.722Z,0.00
2019-05-11T01:40:59.747Z,0.00
2019-05-11T01:41:59.772Z,0.00
2019-05-11T01:42:59.748Z,0.00
2019-05-11T01:43:59.732Z,0.00
2019-05-11T01:44:59.789Z,0.00
2019-05-11T01:45:59.719Z,0.00
2019-05-11T01:46:59.742Z,0.00
2019-05-11T01:47:59.712Z,0.00
2019-05-11T01:48:59.714Z,0.15
2019-05-11T01:49:59.739Z,0.71
2019-05-11T01:50:59.781Z,1.10
2019-05-11T01:51:59.763Z,1.01
2019-05-11T01:52:59.713Z,0.55
2019-05-11T01:53:59.738Z,0.30
2019-05-11T01:54:59.725Z,0.06
2019-05-11T01:55:59.743Z,0.00
2019-05-11T01:56:59.771Z,0.00
2019-05-11T01:57:59.747Z,0.62
2019-05-11T01:58:59.729Z,0.03
2019-05-11T01:59:59.769Z,0.16
2019-05-11T02:00:59.726Z,0.68
2019-05-11T02:01:59.770Z,0.15
2019-05-11T02:02:59.724Z,0.13
2019-05-11T02:03:59.740Z,0.00
2019-05-11T02:04:59.762Z,0.00
2019-05-11T02:05:59.762Z,0.17
2019-05-11T02:06:59.749Z,0.10
2019-05-11T02:07:59.815Z,0.00
2019-05-11T02:08:59.777Z,0.68
2019-05-11T02:09:59.750Z,1.03
2019-05-11T02:11:14.883Z,1.17
2019-05-11T02:11:59.738Z,1.16
2019-05-11T02:12:59.746Z,0.92
2019-05-11T02:13:59.758Z,1.12
2019-05-11T02:14:59.794Z,0.63
2019-05-11T02:15:59.740Z,0.91
2019-05-11T02:16:59.748Z,0.61
2019-05-11T02:17:59.814Z,0.81
2019-05-11T02:18:59.747Z,1.33
2019-05-11T02:19:59.760Z,1.34
2019-05-11T02:20:59.789Z,0.87
2019-05-11T02:21:59.735Z,0.85
2019-05-11T02:22:59.777Z,0.64
2019-05-11T02:23:59.805Z,0.79
2019-05-11T02:24:59.748Z,0.17
2019-05-11T02:25:59.773Z,0.00
2019-05-11T02:26:59.796Z,0.00
2019-05-11T02:27:59.739Z,0.00
2019-05-11T02:28:59.794Z,0.00
2019-05-11T02:29:59.782Z,0.00
2019-05-11T02:30:59.751Z,0.15
2019-05-11T02:31:59.776Z,0.00
2019-05-11T02:32:59.780Z,0.21
2019-05-11T02:33:59.760Z,0.29
2019-05-11T02:34:59.766Z,0.00
2019-05-11T02:35:59.751Z,0.00
2019-05-11T02:36:59.745Z,0.00
2019-05-11T02:37:59.775Z,0.00
2019-05-11T02:38:59.798Z,0.00
2019-05-11T02:39:59.760Z,0.06
2019-05-11T02:40:59.772Z,0.18
2019-05-11T02:41:59.800Z,0.00
2019-05-11T02:42:59.764Z,0.41
2019-05-11T02:43:59.776Z,0.13
2019-05-11T02:44:59.780Z,0.00
2019-05-11T02:45:59.755Z,0.00
2019-05-11T02:46:59.784Z,0.00
2019-05-11T02:47:59.783Z,0.00
2019-05-11T02:48:59.771Z,0.00
2019-05-11T02:49:59.784Z,0.00
2019-05-11T02:50:59.757Z,0.00
2019-05-11T02:51:59.777Z,0.00
2019-05-11T02:52:59.792Z,0.00
2019-05-11T02:53:59.830Z,0.00
2019-05-11T02:54:59.763Z,0.00
2019-05-11T02:55:59.913Z,0.00
2019-05-11T02:56:59.817Z,0.00
2019-05-11T02:57:59.790Z,0.17
2019-05-11T02:58:59.808Z,0.31
2019-05-11T02:59:59.819Z,0.08
2019-05-11T03:00:59.804Z,0.48
2019-05-11T03:01:59.791Z,0.25
2019-05-11T03:02:59.818Z,0.25
2019-05-11T03:03:59.781Z,0.23
2019-05-11T03:04:59.795Z,0.02
2019-05-11T03:05:59.814Z,0.00
2019-05-11T03:06:59.767Z,0.00
2019-05-11T03:07:59.789Z,0.00
2019-05-11T03:08:59.775Z,0.00
2019-05-11T03:09:59.785Z,0.00
2019-05-11T03:10:59.820Z,0.00
2019-05-11T03:11:59.825Z,0.00
2019-05-11T03:12:59.777Z,0.00
2019-05-11T03:13:59.815Z,0.00
2019-05-11T03:14:59.763Z,0.00
2019-05-11T03:15:59.792Z,0.00
2019-05-11T03:16:59.787Z,0.00
2019-05-11T03:17:59.761Z,0.30
2019-05-11T03:18:59.801Z,0.46
2019-05-11T03:19:59.793Z,0.03
2019-05-11T03:20:59.778Z,0.00
2019-05-11T03:21:59.805Z,0.00
2019-05-11T03:22:59.816Z,0.00
2019-05-11T03:23:59.821Z,0.19
2019-05-11T03:24:59.772Z,0.05
2019-05-11T03:25:59.810Z,0.10
2019-05-11T03:26:59.799Z,0.00
2019-05-11T03:27:59.808Z,0.00
2019-05-11T03:28:59.783Z,0.00
2019-05-11T03:30:01.163Z,0.00
2019-05-11T03:30:59.839Z,0.00
2019-05-11T03:31:59.838Z,0.00
2019-05-11T03:32:59.862Z,0.00
2019-05-11T03:33:59.812Z,0.00
2019-05-11T03:34:59.786Z,0.00
2019-05-11T03:35:59.840Z,0.00
2019-05-11T03:36:59.829Z,0.00
2019-05-11T03:37:59.811Z,0.00
2019-05-11T03:38:59.868Z,0.00
2019-05-11T03:39:59.787Z,0.00
2019-05-11T03:40:59.817Z,0.00
2019-05-11T03:42:13.837Z,0.00
2019-05-11T03:42:59.811Z,0.00
2019-05-11T03:43:59.831Z,0.00
2019-05-11T03:44:59.783Z,0.00
2019-05-11T03:45:59.817Z,0.60
2019-05-11T03:46:59.829Z,0.84
2019-05-11T03:47:59.782Z,0.26
2019-05-11T03:48:59.804Z,0.03
2019-05-11T03:49:59.843Z,0.11
2019-05-11T03:50:59.840Z,0.00
2019-05-11T03:51:59.808Z,0.25
2019-05-11T03:52:59.825Z,0.13
2019-05-11T03:53:59.848Z,0.00
2019-05-11T03:54:59.791Z,0.01
2019-05-11T03:55:59.854Z,0.11
2019-05-11T03:56:59.823Z,0.04
2019-05-11T03:57:59.809Z,0.19
2019-05-11T03:58:59.836Z,0.00
2019-05-11T03:59:59.791Z,0.25
2019-05-11T04:00:59.811Z,0.00
2019-05-11T04:01:59.862Z,0.00
2019-05-11T04:02:59.792Z,0.00
2019-05-11T04:03:59.808Z,0.00
2019-05-11T04:04:59.853Z,0.00
2019-05-11T04:05:59.806Z,0.00
2019-05-11T04:06:59.805Z,0.00
2019-05-11T04:07:59.825Z,0.00
2019-05-11T04:08:59.824Z,0.00
2019-05-11T04:09:59.826Z,0.00
2019-05-11T04:10:59.860Z,0.00
2019-05-11T04:11:59.797Z,0.00
2019-05-11T04:12:59.861Z,0.00
2019-05-11T04:13:59.885Z,0.00
2019-05-11T04:14:59.836Z,0.00
2019-05-11T04:15:59.869Z,0.00
2019-05-11T04:16:59.840Z,0.00
2019-05-11T04:17:59.817Z,0.00
2019-05-11T04:18:59.865Z,0.00
2019-05-11T04:19:59.875Z,0.00
2019-05-11T04:20:59.864Z,0.00
2019-05-11T04:21:59.893Z,0.00
2019-05-11T04:22:59.867Z,0.00
2019-05-11T04:23:59.806Z,0.06
2019-05-11T04:24:59.907Z,0.23
2019-05-11T04:25:59.871Z,0.08
2019-05-11T04:26:59.864Z,0.01
2019-05-11T04:27:59.877Z,0.04
2019-05-11T04:28:59.843Z,0.00
2019-05-11T04:29:59.864Z,0.03
2019-05-11T04:30:59.885Z,0.02
2019-05-11T04:31:59.874Z,0.00
2019-05-11T04:32:59.812Z,0.00
2019-05-11T04:33:59.894Z,0.00
2019-05-11T04:34:59.867Z,0.00
2019-05-11T04:35:59.885Z,0.00
2019-05-11T04:36:59.878Z,0.23
2019-05-11T04:37:59.900Z,0.90
2019-05-11T04:38:59.867Z,0.78
2019-05-11T04:39:59.866Z,1.49
2019-05-11T04:40:59.846Z,1.60
2019-05-11T04:41:59.885Z,1.75
2019-05-11T04:42:59.884Z,1.55
2019-05-11T04:43:59.885Z,0.82
2019-05-11T04:44:59.889Z,1.29
2019-05-11T04:45:59.888Z,1.37
2019-05-11T04:46:59.863Z,1.61
2019-05-11T04:47:59.866Z,1.64
2019-05-11T04:48:59.889Z,1.35
2019-05-11T04:49:59.904Z,0.82
2019-05-11T04:50:59.862Z,0.33
2019-05-11T04:51:59.888Z,0.88
2019-05-11T04:52:59.894Z,0.60
2019-05-11T04:53:59.872Z,0.39
2019-05-11T04:54:59.902Z,0.05
2019-05-11T04:55:59.890Z,0.64
2019-05-11T04:56:59.882Z,1.06
2019-05-11T04:57:59.870Z,1.18
2019-05-11T04:58:59.896Z,0.94
2019-05-11T04:59:59.848Z,0.84
2019-05-11T05:00:59.884Z,1.05
2019-05-11T05:01:59.901Z,0.07
2019-05-11T05:02:59.887Z,0.65
2019-05-11T05:04:13.252Z,0.61
2019-05-11T05:04:59.865Z,0.43
2019-05-11T05:06:20.890Z,0.23
2019-05-11T05:07:00.280Z,0.01
2019-05-11T05:08:09.086Z,0.21
2019-05-11T05:09:03.670Z,0.15
2019-05-11T05:09:59.893Z,0.02
2019-05-11T05:11:00.823Z,0.00
2019-05-11T05:11:59.833Z,0.00
2019-05-11T05:13:10.145Z,0.31
2019-05-11T05:14:02.106Z,0.37
2019-05-11T05:14:59.835Z,0.28
2019-05-11T05:15:59.903Z,0.02
2019-05-11T05:16:59.891Z,0.02
2019-05-11T05:17:59.844Z,0.13
2019-05-11T05:18:59.907Z,0.00
2019-05-11T05:19:59.890Z,0.00
2019-05-11T05:20:59.843Z,0.00
2019-05-11T05:21:59.904Z,0.07
2019-05-11T05:22:59.897Z,0.00
2019-05-11T05:23:59.862Z,0.00
2019-05-11T05:24:59.926Z,0.03
2019-05-11T05:25:59.906Z,0.02
2019-05-11T05:26:59.886Z,1.02
2019-05-11T05:27:59.916Z,1.37
2019-05-11T05:28:59.913Z,1.06
2019-05-11T05:29:59.922Z,0.98
2019-05-11T05:30:59.917Z,2.02
2019-05-11T05:31:59.928Z,2.07
2019-05-11T05:32:59.851Z,1.94
2019-05-11T05:34:01.483Z,1.47
2019-05-11T05:34:59.896Z,1.50
2019-05-11T05:35:59.901Z,2.13
2019-05-11T05:36:59.938Z,1.12
2019-05-11T05:37:59.945Z,1.44
2019-05-11T05:38:59.866Z,0.78
2019-05-11T05:39:59.937Z,0.84
2019-05-11T05:40:59.918Z,1.36
2019-05-11T05:41:59.882Z,0.71
2019-05-11T05:42:59.940Z,1.47
2019-05-11T05:43:59.901Z,0.74
2019-05-11T05:44:59.914Z,0.33
2019-05-11T05:45:59.931Z,0.57
2019-05-11T05:46:59.892Z,0.78
2019-05-11T05:47:59.910Z,0.17
2019-05-11T05:48:59.951Z,0.65
2019-05-11T05:49:59.912Z,0.20
2019-05-11T05:50:59.916Z,0.59
2019-05-11T05:51:59.940Z,0.78
2019-05-11T05:52:59.923Z,0.06
2019-05-11T05:53:59.914Z,0.20
2019-05-11T05:54:59.960Z,0.28
2019-05-11T05:55:59.916Z,0.00
2019-05-11T05:56:59.889Z,0.84
2019-05-11T05:57:59.930Z,0.42
2019-05-11T05:58:59.919Z,0.09
2019-05-11T05:59:59.948Z,0.30
2019-05-11T06:00:59.950Z,0.06
2019-05-11T06:01:59.912Z,0.00
2019-05-11T06:02:59.875Z,0.01
2019-05-11T06:03:59.931Z,0.00
2019-05-11T06:04:59.943Z,0.38
2019-05-11T06:05:59.951Z,0.42
2019-05-11T06:06:59.944Z,0.00
2019-05-11T06:07:59.933Z,0.08
2019-05-11T06:08:59.933Z,0.08
2019-05-11T06:09:59.902Z,0.00
2019-05-11T06:10:59.962Z,0.00
2019-05-11T06:11:59.948Z,0.00
2019-05-11T06:12:59.929Z,0.00
2019-05-11T06:13:59.939Z,0.00
2019-05-11T06:14:59.890Z,0.00
2019-05-11T06:15:59.958Z,0.24
2019-05-11T06:16:59.932Z,0.46
2019-05-11T06:18:00.714Z,0.95
2019-05-11T06:18:59.930Z,0.90
2019-05-11T06:19:59.935Z,1.31
2019-05-11T06:20:59.934Z,1.11
2019-05-11T06:21:59.973Z,0.94
2019-05-11T06:22:59.955Z,0.42
2019-05-11T06:24:06.084Z,0.72
2019-05-11T06:24:59.919Z,0.96
2019-05-11T06:25:59.966Z,0.38
2019-05-11T06:26:59.970Z,0.13
2019-05-11T06:27:59.957Z,0.01
2019-05-11T06:28:59.947Z,0.67
2019-05-11T06:29:59.938Z,0.86
2019-05-11T06:30:59.967Z,0.59
2019-05-11T06:31:59.964Z,0.12
2019-05-11T06:32:59.973Z,0.02
2019-05-11T06:33:59.966Z,0.83
2019-05-11T06:34:59.959Z,0.27
2019-05-11T06:35:59.978Z,0.00
2019-05-11T06:36:59.957Z,0.00
2019-05-11T06:37:59.973Z,0.00
2019-05-11T06:38:59.974Z,0.00
2019-05-11T06:39:59.986Z,0.17
2019-05-11T06:40:59.940Z,1.08
2019-05-11T06:41:59.950Z,0.31
2019-05-11T06:42:59.988Z,0.00
2019-05-11T06:44:02.013Z,0.53
2019-05-11T06:44:59.969Z,0.54
2019-05-11T06:46:00.067Z,0.66
2019-05-11T06:46:59.981Z,1.01
2019-05-11T06:47:59.959Z,0.52
2019-05-11T06:48:59.975Z,1.57
2019-05-11T06:49:59.971Z,0.87
2019-05-11T06:50:59.928Z,1.31
2019-05-11T06:51:59.989Z,1.31
2019-05-11T06:52:59.973Z,0.31
2019-05-11T06:53:59.942Z,0.50
2019-05-11T06:55:00.014Z,0.34
2019-05-11T06:55:59.978Z,0.71
2019-05-11T06:56:59.915Z,0.78
2019-05-11T06:57:59.947Z,0.09
2019-05-11T06:58:59.976Z,0.06
2019-05-11T06:59:59.961Z,0.18
2019-05-11T07:01:00.013Z,0.07
2019-05-11T07:01:59.965Z,1.16
2019-05-11T07:02:59.928Z,1.11
2019-05-11T07:04:00.012Z,1.49
2019-05-11T07:04:59.982Z,1.08
2019-05-11T07:05:59.940Z,1.10
2019-05-11T07:07:00.003Z,0.78
2019-05-11T07:07:59.971Z,1.42
2019-05-11T07:08:59.981Z,1.52
2019-05-11T07:09:59.988Z,0.85
2019-05-11T07:10:59.987Z,0.35
2019-05-11T07:12:00.041Z,1.24
2019-05-11T07:13:00.017Z,1.07
2019-05-11T07:13:59.986Z,1.20
2019-05-11T07:14:59.954Z,1.17
2019-05-11T07:16:00.031Z,0.88
2019-05-11T07:17:00.018Z,0.50
2019-05-11T07:18:00.038Z,0.00
2019-05-11T07:19:00.056Z,0.15
2019-05-11T07:20:00.073Z,0.02
2019-05-11T07:21:00.049Z,0.00
2019-05-11T07:22:00.093Z,0.58
2019-05-11T07:23:00.112Z,0.85
2019-05-11T07:24:00.076Z,0.45
2019-05-11T07:25:00.143Z,0.19
2019-05-11T07:26:00.429Z,0.92
2019-05-11T07:27:00.148Z,0.90
2019-05-11T07:28:00.174Z,0.79
2019-05-11T07:29:00.185Z,0.21
2019-05-11T07:30:00.205Z,0.03
2019-05-11T07:31:00.209Z,0.05
2019-05-11T07:32:06.271Z,1.45
2019-05-11T07:33:00.992Z,1.66
2019-05-11T07:34:00.220Z,2.41
2019-05-11T07:35:00.206Z,2.16
2019-05-11T07:36:00.212Z,1.09
2019-05-11T07:37:00.212Z,0.52
2019-05-11T07:38:00.202Z,0.27
2019-05-11T07:39:00.195Z,0.59
2019-05-11T07:40:00.236Z,0.90
2019-05-11T07:41:00.222Z,1.07
2019-05-11T07:42:00.187Z,1.01
2019-05-11T07:43:00.217Z,2.22
2019-05-11T07:44:00.217Z,0.57
2019-05-11T07:45:00.198Z,0.58
2019-05-11T07:46:00.206Z,0.22
2019-05-11T07:47:00.224Z,1.19
2019-05-11T07:48:00.187Z,1.34
2019-05-11T07:49:00.241Z,1.77
2019-05-11T07:50:00.205Z,1.61
2019-05-11T07:51:00.214Z,0.26
2019-05-11T07:52:00.234Z,0.33
2019-05-11T07:53:00.239Z,1.34
2019-05-11T07:54:00.235Z,2.00
2019-05-11T07:55:00.236Z,2.19
2019-05-11T07:56:00.229Z,2.03
2019-05-11T07:57:00.220Z,1.51
2019-05-11T07:58:00.239Z,4.09
2019-05-11T07:59:00.254Z,1.72
2019-05-11T08:00:00.232Z,4.10
2019-05-11T08:01:00.235Z,3.09
2019-05-11T08:02:00.205Z,3.22
2019-05-11T08:03:00.228Z,2.51
2019-05-11T08:04:00.252Z,4.33
2019-05-11T08:05:00.239Z,2.66
2019-05-11T08:06:02.748Z,1.88
2019-05-11T08:07:00.241Z,2.08
2019-05-11T08:08:00.234Z,2.01
2019-05-11T08:09:00.169Z,2.72
2019-05-11T08:10:00.254Z,4.63
2019-05-11T08:11:00.255Z,2.07
2019-05-11T08:12:00.256Z,1.62
2019-05-11T08:13:00.247Z,2.65
2019-05-11T08:14:00.246Z,4.36
2019-05-11T08:15:08.155Z,2.81
2019-05-11T08:16:00.248Z,1.36
2019-05-11T08:17:00.295Z,1.20
2019-05-11T08:18:00.215Z,1.51
2019-05-11T08:19:00.262Z,3.13
2019-05-11T08:20:00.227Z,1.76
2019-05-11T08:21:00.236Z,1.87
2019-05-11T08:22:00.257Z,1.46
2019-05-11T08:23:00.261Z,3.26
2019-05-11T08:24:00.229Z,2.16
2019-05-11T08:25:00.265Z,1.38
2019-05-11T08:26:00.229Z,3.35
2019-05-11T08:27:00.247Z,2.91
2019-05-11T08:28:00.274Z,1.69
2019-05-11T08:29:00.266Z,2.30
2019-05-11T08:30:00.263Z,2.51
2019-05-11T08:31:00.272Z,3.22
2019-05-11T08:32:00.247Z,2.11
2019-05-11T08:33:00.225Z,1.49
2019-05-11T08:34:00.263Z,2.23
2019-05-11T08:35:00.288Z,3.80
2019-05-11T08:36:00.273Z,3.37
2019-05-11T08:37:00.277Z,3.64
2019-05-11T08:38:00.256Z,2.56
2019-05-11T08:39:00.253Z,2.36
2019-05-11T08:40:00.303Z,1.91
2019-05-11T08:41:00.269Z,3.12
2019-05-11T08:42:03.201Z,2.50
2019-05-11T08:43:00.291Z,1.93
2019-05-11T08:44:00.267Z,3.32
2019-05-11T08:45:16.226Z,1.86
2019-05-11T08:46:00.290Z,1.84
2019-05-11T08:47:00.289Z,3.32
2019-05-11T08:48:00.268Z,2.86
2019-05-11T08:49:00.299Z,4.42
2019-05-11T08:50:00.247Z,2.77
2019-05-11T08:51:00.252Z,2.18
2019-05-11T08:52:00.285Z,1.15
2019-05-11T08:53:00.292Z,1.15
2019-05-11T08:54:00.262Z,1.86
2019-05-11T08:55:00.272Z,1.47
2019-05-11T08:56:00.279Z,1.49
2019-05-11T08:57:00.219Z,2.38
2019-05-11T08:58:00.314Z,1.59
2019-05-11T08:59:00.287Z,2.23
2019-05-11T09:00:00.229Z,1.74
2019-05-11T09:01:00.302Z,2.20
2019-05-11T09:02:00.279Z,2.76
2019-05-11T09:03:00.233Z,0.76
2019-05-11T09:04:00.289Z,1.01
2019-05-11T09:05:00.276Z,2.07
2019-05-11T09:06:00.280Z,1.80
2019-05-11T09:07:00.326Z,2.19
2019-05-11T09:08:00.281Z,2.27
2019-05-11T09:09:00.237Z,2.18
2019-05-11T09:10:00.291Z,2.65
2019-05-11T09:11:00.303Z,1.72
2019-05-11T09:12:00.260Z,1.34
2019-05-11T09:13:00.325Z,1.00
2019-05-11T09:14:00.308Z,2.28
2019-05-11T09:15:00.301Z,1.88
2019-05-11T09:16:00.322Z,3.08
2019-05-11T09:17:00.291Z,2.36
2019-05-11T09:18:00.255Z,2.16
2019-05-11T09:19:00.300Z,1.60
2019-05-11T09:20:00.293Z,1.62
2019-05-11T09:21:00.260Z,1.51
2019-05-11T09:22:03.130Z,0.85
2019-05-11T09:23:00.310Z,1.81
2019-05-11T09:24:00.259Z,1.83
2019-05-11T09:25:00.323Z,2.49
2019-05-11T09:26:00.316Z,2.12
2019-05-11T09:27:00.246Z,1.26
2019-05-11T09:28:00.331Z,2.87
2019-05-11T09:29:00.292Z,1.63
2019-05-11T09:30:00.303Z,2.42
2019-05-11T09:31:00.356Z,1.83
2019-05-11T09:32:00.321Z,0.95
2019-05-11T09:33:00.312Z,1.42
2019-05-11T09:34:00.324Z,3.38
2019-05-11T09:35:00.304Z,3.38
2019-05-11T09:36:00.277Z,3.45
2019-05-11T09:37:00.335Z,2.33
2019-05-11T09:38:00.313Z,0.99
2019-05-11T09:39:00.309Z,3.09
2019-05-11T09:40:00.364Z,2.80
2019-05-11T09:41:00.341Z,5.05
2019-05-11T09:42:00.322Z,2.78
2019-05-11T09:43:00.360Z,2.69
2019-05-11T09:44:00.334Z,2.98
2019-05-11T09:45:00.294Z,2.50
2019-05-11T09:46:00.338Z,1.86
2019-05-11T09:47:02.621Z,0.72
2019-05-11T09:48:00.313Z,1.98
2019-05-11T09:49:00.339Z,3.56
2019-05-11T09:50:00.336Z,2.66
2019-05-11T09:51:00.313Z,2.36
2019-05-11T09:52:00.326Z,1.88
2019-05-11T09:53:00.301Z,3.08
2019-05-11T09:54:00.293Z,0.85
2019-05-11T09:55:00.323Z,4.27
2019-05-11T09:56:00.339Z,2.25
2019-05-11T09:57:00.332Z,2.17
2019-05-11T09:58:00.355Z,2.76
2019-05-11T09:59:00.340Z,2.99
2019-05-11T10:00:00.335Z,2.68
2019-05-11T10:01:00.336Z,0.84
2019-05-11T10:02:00.315Z,1.86
2019-05-11T10:03:00.396Z,1.42
2019-05-11T10:04:00.354Z,2.00
2019-05-11T10:05:00.376Z,1.27
2019-05-11T10:06:00.373Z,1.59
2019-05-11T10:07:00.390Z,2.28
2019-05-11T10:08:00.432Z,4.24
2019-05-11T10:09:00.404Z,4.11
2019-05-11T10:10:00.454Z,1.78
2019-05-11T10:11:00.444Z,1.40
2019-05-11T10:12:00.448Z,3.20
2019-05-11T10:13:00.487Z,2.94
2019-05-11T10:14:00.530Z,2.90
2019-05-11T10:15:00.456Z,2.31
2019-05-11T10:16:06.864Z,2.02
2019-05-11T10:17:00.486Z,1.91
2019-05-11T10:18:00.506Z,2.08
2019-05-11T10:19:00.523Z,2.83
2019-05-11T10:20:00.543Z,2.25
2019-05-11T10:21:00.495Z,1.89
2019-05-11T10:22:00.528Z,3.67
2019-05-11T10:23:00.486Z,2.54
2019-05-11T10:24:00.510Z,1.58
2019-05-11T10:25:00.550Z,4.17
2019-05-11T10:26:00.533Z,2.13
2019-05-11T10:27:00.514Z,2.00
2019-05-11T10:28:00.530Z,0.83
2019-05-11T10:29:00.508Z,0.94
2019-05-11T10:30:00.494Z,3.56
2019-05-11T10:31:00.557Z,2.22
2019-05-11T10:32:00.517Z,1.17
2019-05-11T10:33:00.524Z,2.70
2019-05-11T10:34:00.553Z,3.86
2019-05-11T10:35:00.521Z,2.88
2019-05-11T10:36:03.152Z,2.26
2019-05-11T10:37:00.536Z,2.50
2019-05-11T10:38:00.534Z,3.25
2019-05-11T10:39:00.550Z,2.51
2019-05-11T10:40:00.573Z,2.91
2019-05-11T10:41:00.579Z,2.31
2019-05-11T10:42:00.636Z,4.24
2019-05-11T10:43:00.574Z,2.54
2019-05-11T10:44:00.621Z,3.78
2019-05-11T10:45:00.614Z,2.00
2019-05-11T10:46:14.856Z,2.07
2019-05-11T10:47:00.627Z,2.52
2019-05-11T10:48:01.267Z,1.65
2019-05-11T10:49:00.643Z,2.68
2019-05-11T10:50:00.648Z,3.26
2019-05-11T10:51:00.591Z,2.20
2019-05-11T10:52:00.675Z,0.83
2019-05-11T10:53:00.666Z,2.10
2019-05-11T10:54:00.640Z,1.48
2019-05-11T10:55:00.643Z,2.36
2019-05-11T10:56:00.648Z,2.35
2019-05-11T10:57:00.645Z,1.89
2019-05-11T10:58:00.691Z,1.92
2019-05-11T10:59:00.671Z,4.54
2019-05-11T11:00:00.638Z,4.32
2019-05-11T11:01:00.671Z,2.91
2019-05-11T11:02:00.664Z,3.23
2019-05-11T11:03:00.642Z,0.92
2019-05-11T11:04:00.693Z,2.65
2019-05-11T11:05:00.880Z,1.00
2019-05-11T11:06:00.647Z,2.07
2019-05-11T11:07:00.682Z,2.39
2019-05-11T11:08:00.647Z,2.06
2019-05-11T11:09:00.607Z,1.42
2019-05-11T11:10:00.691Z,1.63
2019-05-11T11:11:00.655Z,2.38
2019-05-11T11:12:00.650Z,1.56
2019-05-11T11:13:00.675Z,2.94
2019-05-11T11:14:00.627Z,1.96
2019-05-11T11:15:00.667Z,1.27
2019-05-11T11:16:02.104Z,1.97
2019-05-11T11:17:00.667Z,2.90
2019-05-11T11:18:00.612Z,1.34
2019-05-11T11:19:00.691Z,1.23
2019-05-11T11:20:00.698Z,2.52
2019-05-11T11:21:00.672Z,1.89
2019-05-11T11:22:28.561Z,2.77
2019-05-11T11:23:00.672Z,1.64
2019-05-11T11:24:00.622Z,1.73
2019-05-11T11:25:00.713Z,2.59
2019-05-11T11:26:00.673Z,3.86
2019-05-11T11:27:00.713Z,2.53
2019-05-11T11:28:00.697Z,3.67
2019-05-11T11:29:00.681Z,2.07
2019-05-11T11:30:00.686Z,2.26
2019-05-11T11:31:00.699Z,2.13
2019-05-11T11:32:00.682Z,3.00
2019-05-11T11:33:00.701Z,3.00
2019-05-11T11:34:00.707Z,2.41
2019-05-11T11:35:00.799Z,1.74
2019-05-11T11:36:00.648Z,3.88
2019-05-11T11:37:00.708Z,2.12
2019-05-11T11:38:00.702Z,2.77
2019-05-11T11:39:00.643Z,3.22
2019-05-11T11:40:00.741Z,3.28
2019-05-11T11:41:00.690Z,1.48
2019-05-11T11:42:00.678Z,1.31
2019-05-11T11:43:00.713Z,1.60
2019-05-11T11:44:00.681Z,1.08
2019-05-11T11:45:00.717Z,2.41
2019-05-11T11:46:00.737Z,2.15
2019-05-11T11:47:00.780Z,0.90
2019-05-11T11:48:00.685Z,0.89
2019-05-11T11:49:00.720Z,1.88
2019-05-11T11:50:00.744Z,1.62
2019-05-11T11:51:00.704Z,1.67
2019-05-11T11:52:00.732Z,2.99
2019-05-11T11:53:00.716Z,1.89
2019-05-11T11:54:00.698Z,3.48
2019-05-11T11:55:00.723Z,3.39
2019-05-11T11:56:00.725Z,3.66
2019-05-11T11:57:00.713Z,2.18
2019-05-11T11:58:00.742Z,0.98
2019-05-11T11:59:00.731Z,0.97
2019-05-11T12:00:00.720Z,1.37
2019-05-11T12:01:00.739Z,1.31
2019-05-11T12:02:00.726Z,1.47
2019-05-11T12:03:00.667Z,3.52
2019-05-11T12:04:00.760Z,1.03
2019-05-11T12:05:00.709Z,1.76
2019-05-11T12:06:00.679Z,1.28
2019-05-11T12:07:00.739Z,1.10
2019-05-11T12:08:00.739Z,0.77
2019-05-11T12:09:00.703Z,1.35
2019-05-11T12:10:00.744Z,0.66
2019-05-11T12:11:00.722Z,0.58
2019-05-11T12:12:00.697Z,0.93
2019-05-11T12:13:00.746Z,3.23
2019-05-11T12:14:00.756Z,2.31
2019-05-11T12:15:00.751Z,2.66
2019-05-11T12:16:00.758Z,3.69
2019-05-11T12:17:06.967Z,2.90
2019-05-11T12:18:00.695Z,2.67
2019-05-11T12:19:00.749Z,1.72
2019-05-11T12:20:00.737Z,1.21
2019-05-11T12:21:00.716Z,0.65
2019-05-11T12:22:00.780Z,1.49
2019-05-11T12:23:00.767Z,0.99
2019-05-11T12:24:00.732Z,1.70
2019-05-11T12:25:00.769Z,1.13
2019-05-11T12:26:00.728Z,0.99
2019-05-11T12:27:00.753Z,1.43
2019-05-11T12:28:00.766Z,1.27
2019-05-11T12:29:00.756Z,1.66
2019-05-11T12:30:00.705Z,1.39
2019-05-11T12:31:00.762Z,1.15
2019-05-11T12:32:00.738Z,1.59
2019-05-11T12:33:00.725Z,1.35
2019-05-11T12:34:00.767Z,1.13
2019-05-11T12:35:00.734Z,0.86
2019-05-11T12:36:00.728Z,1.25
2019-05-11T12:37:00.768Z,1.59
2019-05-11T12:38:00.778Z,1.36
2019-05-11T12:39:00.752Z,1.17
2019-05-11T12:40:00.767Z,1.29
2019-05-11T12:41:00.732Z,0.90
2019-05-11T12:42:00.713Z,1.88
2019-05-11T12:43:00.806Z,1.11
2019-05-11T12:44:00.769Z,1.01
2019-05-11T12:45:00.756Z,2.13
2019-05-11T12:46:00.779Z,3.30
2019-05-11T12:47:00.755Z,3.45
2019-05-11T12:48:00.773Z,2.97
2019-05-11T12:49:00.798Z,2.39
2019-05-11T12:50:00.757Z,2.31
2019-05-11T12:51:00.741Z,2.95
2019-05-11T12:52:00.761Z,3.92
2019-05-11T12:53:00.746Z,2.81
2019-05-11T12:54:00.770Z,2.01
2019-05-11T12:55:00.821Z,1.67
2019-05-11T12:56:00.778Z,1.61
2019-05-11T12:57:00.777Z,3.54
2019-05-11T12:58:00.801Z,2.82
2019-05-11T12:59:00.761Z,1.51
2019-05-11T13:00:00.770Z,1.34
2019-05-11T13:01:00.817Z,1.20
2019-05-11T13:02:00.791Z,1.85
2019-05-11T13:03:00.801Z,3.32
2019-05-11T13:04:00.811Z,2.18
2019-05-11T13:05:00.795Z,2.42
2019-05-11T13:06:00.791Z,2.11
2019-05-11T13:07:00.811Z,2.79
2019-05-11T13:08:00.795Z,4.37
2019-05-11T13:09:00.811Z,2.78
2019-05-11T13:10:00.804Z,5.19
2019-05-11T13:11:00.798Z,5.08
2019-05-11T13:12:00.798Z,3.26
2019-05-11T13:13:02.707Z,1.66
2019-05-11T13:14:00.801Z,2.66
2019-05-11T13:15:00.791Z,3.72
2019-05-11T13:16:00.789Z,3.20
2019-05-11T13:17:00.798Z,2.70
2019-05-11T13:18:00.811Z,2.09
2019-05-11T13:19:00.824Z,1.43